05:56
Airports
History
Links
Donate
Help keep this website running!
PayPal
Bitcoin
This page is community maintained. The information is intended for PC simulator navigation or reference.
Always use approved charts for navigation.
SJDS
Fabrica Fortaleza
Fabrica Fortaleza (SJDS)
Eusébio, Ceara, Brazil (61760)
(U)
Lat/Lng:3° 55' 38" S / 38° 30' 2" W
-3.927222 / -38.500556
Elevation:66'ft / 20mMSL
ID / ICAO:SJDS
Runways:1
Longest:13-31
Asphalt 1,078m / 3,538ft
Nearby Weather06:00 GMT 2017-11-20
Nearby weather at SBFZ, Pinto Martins located 10.7 nautical miles from SJDS
Altimeter: 29.80
Visibility: 6.2 statute miles
Wind: 10 knots (from 090°)
Temp: 26°c / 79°f
Humidity: 78.7%

METAR: SBFZ 200600Z 09010KT 9999 BKN020 26/22 Q1009

(Powered by phpweather)
Runway 13 / 31
Dimensions:1078.3 x 32m 3538' x 105'ft
Surface:Asphalt
Edge Lights:Medium intensity
Runway 13 [A]Runway 31 [B]
Heading:108°TH 288°TH
Lat:
Lng:
3° 55' 32.42"S
38° 30' 18.62"W
3° 55' 43.58"S
38° 29' 45.38"W
User Notes and Comments
3° 55' 38" S / 38° 30' 2" W
Distance To
Airport ID:
Nearby Airports
(C) Pinto Martins 10.7 NM
SBFZ ( WX ) NNW 348°
4 Feijo 11.4 NM
SNFF NW 315°
4 Sitio Vodo 20.9 NM
SNYX ESE 123°
4 Darinha 21.6 NM
SWWZ SE 127°
(C) Aracati 65.5 NM
SNAT SE 132°
4 Vicente Jose 67.9 NM
SNYZ SSE 158°
(C) Russas 78.2 NM
SNRS SSE 154°
VFR Chart
Flight Planning at SkyVector.com